KMGR

Moultrie Municipal Airport

Moultrie, Georgia, USA
METAR KMGR 161535Z AUTO 33005KT 10SM CLR 07/00 A3025 RMK AO2
Observed Flight Rules
Nov-16 @ 15:35 UTC (30 minutes ago) Visual Flight Rules
Wind Visibility Clouds
330° at 5 knots 10 miles
  • Clear skies
Temperatures Readings
Current 7°C / 45°F
Dewpoint 0°C / 32°F
Humidity 61%
Altimeter 30.25" Hg
Pressure 1024 hPa
Elevation 90
METAR KMGR 161535Z AUTO 33005KT 10SM CLR 07/00 A3025 RMK AO2
Observed Flight Rules
Nov-16 @ 15:35 UTC
(30 minutes ago)
VFR
Wind Visibility
330° at 5 knots 10 miles
Clouds
  • Clear skies
Temperature Dewpoint
7°C / 45°F 0°C / 32°F
Humidity Altimeter Pressure
61% 30.25" Hg 1024 hPa